Time;durP1;ratioP1;P1;durP2;ratioP2;P2;SDS_P1;SDS_P2;PMS_P1;PMS_P2;Temp;Humidity;BMP_temperature;BMP_pressure;BME280_temperature;BME280_humidity;BME280_pressure;Samples;Min_cycle;Max_cycle;Signal;HPM_P1;HPM_P2
2023/12/16 00:01:01;;;;;;;13.52;4.10;;;7.80;99.90;;;;;;7367668;19;20536;-67
2023/12/16 00:03:28;;;;;;;11.10;4.32;;;7.80;99.90;;;;;;7373310;19;20021;-67
2023/12/16 00:05:54;;;;;;;11.80;4.03;;;7.70;99.90;;;;;;7368989;19;20027;-67
2023/12/16 00:08:21;;;;;;;17.73;4.40;;;7.80;99.90;;;;;;7369248;19;20054;-61
2023/12/16 00:10:48;;;;;;;13.63;5.13;;;7.80;99.90;;;;;;7366972;19;20027;-61
2023/12/16 00:13:14;;;;;;;13.68;4.60;;;7.80;99.90;;;;;;7372652;19;20018;-61
2023/12/16 00:15:40;;;;;;;11.77;4.45;;;7.80;99.90;;;;;;7368875;19;20355;-67
2023/12/16 00:18:08;;;;;;;17.42;4.35;;;7.80;99.90;;;;;;7369298;19;20022;-67
2023/12/16 00:20:35;;;;;;;12.93;4.07;;;7.90;99.90;;;;;;7370573;19;20029;-66
2023/12/16 00:23:01;;;;;;;10.57;4.15;;;7.90;99.90;;;;;;7367460;19;20022;-67
2023/12/16 00:25:27;;;;;;;9.45;3.78;;;7.80;99.90;;;;;;7372631;19;20093;-67
2023/12/16 00:27:53;;;;;;;9.63;3.80;;;7.90;99.90;;;;;;7364785;19;20030;-67
2023/12/16 00:30:19;;;;;;;15.50;4.22;;;7.90;99.90;;;;;;7367241;19;20018;-67
2023/12/16 00:32:45;;;;;;;10.05;4.55;;;7.90;99.90;;;;;;7368067;19;20026;-67
2023/12/16 00:35:12;;;;;;;11.48;3.42;;;7.90;99.90;;;;;;7369817;19;20039;-67
2023/12/16 00:37:38;;;;;;;13.15;3.88;;;7.90;99.90;;;;;;7367316;19;20018;-67
2023/12/16 00:40:05;;;;;;;12.70;3.75;;;7.90;99.90;;;;;;7365536;19;20045;-67
2023/12/16 00:42:31;;;;;;;13.85;4.07;;;7.90;99.90;;;;;;7368701;19;20030;-67
2023/12/16 00:44:57;;;;;;;14.13;3.38;;;7.80;99.90;;;;;;7364192;19;20021;-67
2023/12/16 00:47:24;;;;;;;14.00;3.80;;;7.80;99.90;;;;;;7367322;19;20424;-68
2023/12/16 00:49:51;;;;;;;10.05;3.20;;;7.70;99.90;;;;;;7366359;19;20044;-67
2023/12/16 00:52:17;;;;;;;12.50;3.70;;;7.70;99.90;;;;;;7368191;19;20018;-67
2023/12/16 00:54:43;;;;;;;13.25;3.28;;;7.70;99.90;;;;;;7366806;19;20022;-67
2023/12/16 00:57:10;;;;;;;13.07;3.83;;;7.70;99.90;;;;;;7368844;19;20022;-67
2023/12/16 00:59:37;;;;;;;11.80;3.67;;;7.60;99.90;;;;;;7366412;19;20086;-68
2023/12/16 01:02:04;;;;;;;13.13;3.58;;;7.50;99.90;;;;;;7370511;19;20039;-67
2023/12/16 01:04:30;;;;;;;12.25;3.47;;;7.60;99.90;;;;;;7369105;19;20014;-67
2023/12/16 01:06:56;;;;;;;10.48;3.72;;;7.50;99.90;;;;;;7366117;19;20046;-67
2023/12/16 01:09:24;;;;;;;12.77;2.85;;;7.50;99.90;;;;;;7364488;19;20043;-67
2023/12/16 01:12:10;;;;;;;12.15;3.50;;;7.40;99.90;;;;;;7366258;19;20035;-68
2023/12/16 01:14:37;;;;;;;13.27;3.85;;;7.40;99.90;;;;;;7364750;19;20061;-67
2023/12/16 01:17:03;;;;;;;14.00;4.15;;;7.30;99.90;;;;;;7371349;19;20015;-67
2023/12/16 01:19:30;;;;;;;14.40;4.35;;;7.30;99.90;;;;;;7373723;19;20030;-67
2023/12/16 01:21:57;;;;;;;13.45;4.00;;;7.30;99.90;;;;;;7375784;19;20021;-67
2023/12/16 01:24:23;;;;;;;13.35;4.28;;;7.20;99.90;;;;;;7375121;19;20018;-61
2023/12/16 01:26:49;;;;;;;13.40;4.05;;;7.20;99.90;;;;;;7373794;19;20486;-61
2023/12/16 01:29:15;;;;;;;11.63;3.55;;;7.10;99.90;;;;;;7373193;19;20018;-63
2023/12/16 01:31:42;;;;;;;16.30;4.97;;;7.10;99.90;;;;;;7371664;19;20022;-61
2023/12/16 01:34:08;;;;;;;15.60;4.35;;;7.00;99.90;;;;;;7372516;19;20042;-61
2023/12/16 01:36:34;;;;;;;12.52;3.42;;;7.00;99.90;;;;;;7377485;19;20078;-61
2023/12/16 01:39:01;;;;;;;15.80;4.20;;;7.00;99.90;;;;;;7367970;19;20019;-61
2023/12/16 01:41:27;;;;;;;13.77;4.00;;;6.90;99.90;;;;;;7375682;19;20022;-63
2023/12/16 01:44:13;;;;;;;14.55;3.97;;;6.80;99.90;;;;;;7369930;19;20029;-62
2023/12/16 01:46:40;;;;;;;12.65;4.00;;;6.80;99.90;;;;;;7373074;19;20018;-61
2023/12/16 01:49:06;;;;;;;15.02;4.38;;;6.70;99.90;;;;;;7370727;19;20022;-62
2023/12/16 01:51:33;;;;;;;17.73;4.28;;;6.70;99.90;;;;;;7375561;19;20022;-63
2023/12/16 01:54:00;;;;;;;20.05;4.47;;;6.60;99.90;;;;;;7372659;19;20026;-61
2023/12/16 01:56:29;;;;;;;12.75;4.43;;;6.70;99.90;;;;;;7376047;19;20025;-63
2023/12/16 01:58:55;;;;;;;10.40;4.72;;;6.60;99.90;;;;;;7372354;19;20048;-61
2023/12/16 02:01:22;;;;;;;12.23;4.47;;;6.60;99.90;;;;;;7375248;19;20098;-61
2023/12/16 02:03:51;;;;;;;15.80;4.32;;;6.50;99.90;;;;;;7371138;19;20018;-67
2023/12/16 02:06:17;;;;;;;19.13;6.05;;;6.50;99.90;;;;;;7373541;19;20052;-68
2023/12/16 02:08:44;;;;;;;13.02;4.00;;;6.40;99.90;;;;;;7367458;19;20018;-61
2023/12/16 02:11:12;;;;;;;17.33;3.95;;;6.50;99.90;;;;;;7372617;19;20039;-68
2023/12/16 02:13:58;;;;;;;12.18;4.10;;;6.50;99.90;;;;;;7369051;19;20010;-61
2023/12/16 02:16:24;;;;;;;13.98;4.22;;;6.50;99.90;;;;;;7376937;19;20018;-62
2023/12/16 02:18:51;;;;;;;12.65;4.47;;;6.50;99.90;;;;;;7370986;19;20024;-69
2023/12/16 02:21:17;;;;;;;14.30;4.13;;;6.40;99.90;;;;;;7375294;19;20478;-67
2023/12/16 02:23:43;;;;;;;13.70;3.60;;;6.50;99.90;;;;;;7372559;19;20023;-70
2023/12/16 02:26:10;;;;;;;11.48;3.70;;;6.40;99.90;;;;;;7368951;19;20039;-69
2023/12/16 02:28:36;;;;;;;12.65;4.03;;;6.40;99.90;;;;;;7369134;19;20093;-67
2023/12/16 02:31:02;;;;;;;16.58;4.00;;;6.40;99.90;;;;;;7370401;19;20014;-61
2023/12/16 02:33:28;;;;;;;13.20;3.65;;;6.40;99.90;;;;;;7375637;19;20630;-60
2023/12/16 02:35:55;;;;;;;13.10;3.95;;;6.40;99.90;;;;;;7371044;19;20014;-67
2023/12/16 02:38:21;;;;;;;18.25;3.90;;;6.40;99.90;;;;;;7373812;19;20014;-61
2023/12/16 02:40:48;;;;;;;13.32;3.95;;;6.40;99.90;;;;;;7371155;19;20762;-60
2023/12/16 02:43:14;;;;;;;15.18;4.13;;;6.40;99.90;;;;;;7372337;19;20835;-66
2023/12/16 02:45:41;;;;;;;14.90;4.15;;;6.40;99.90;;;;;;7373396;19;20018;-61
2023/12/16 02:48:11;;;;;;;13.10;3.90;;;6.40;99.90;;;;;;7371429;19;20034;-61
2023/12/16 02:50:37;;;;;;;16.58;4.07;;;6.40;99.90;;;;;;7370365;19;20610;-68
2023/12/16 02:53:04;;;;;;;12.55;3.92;;;6.30;99.90;;;;;;7373543;19;20038;-68
2023/12/16 02:55:51;;;;;;;8.50;3.45;;;6.40;99.90;;;;;;7371899;19;20029;-68
2023/12/16 02:58:18;;;;;;;12.43;3.65;;;6.40;99.90;;;;;;7368920;19;20022;-67
2023/12/16 03:00:45;;;;;;;16.85;4.25;;;6.40;99.90;;;;;;7368011;19;20018;-67
2023/12/16 03:03:12;;;;;;;9.70;3.63;;;6.40;99.90;;;;;;7373025;19;20538;-67
2023/12/16 03:05:38;;;;;;;14.40;3.78;;;6.40;99.90;;;;;;7372849;19;20043;-67
2023/12/16 03:08:04;;;;;;;16.50;3.83;;;6.40;99.90;;;;;;7369056;19;20015;-67
2023/12/16 03:10:30;;;;;;;16.17;3.45;;;6.40;99.90;;;;;;7374329;19;20015;-67
2023/12/16 03:12:57;;;;;;;14.90;3.70;;;6.30;99.90;;;;;;7362435;19;20022;-67
2023/12/16 03:15:23;;;;;;;16.98;3.83;;;6.30;99.90;;;;;;7371847;19;20403;-67
2023/12/16 03:17:49;;;;;;;13.90;4.13;;;6.40;99.90;;;;;;7367276;19;20041;-69
2023/12/16 03:20:15;;;;;;;13.38;4.13;;;6.30;99.90;;;;;;7372605;19;20018;-67
2023/12/16 03:22:42;;;;;;;14.75;4.00;;;6.30;99.90;;;;;;7365812;19;20127;-67
2023/12/16 03:25:08;;;;;;;14.05;4.55;;;6.20;99.90;;;;;;7371983;19;20018;-67
2023/12/16 03:27:34;;;;;;;11.70;4.30;;;6.20;99.90;;;;;;7365743;19;20018;-67
2023/12/16 03:30:00;;;;;;;12.43;3.63;;;6.20;99.90;;;;;;7370162;19;20022;-67
2023/12/16 03:32:27;;;;;;;9.93;3.75;;;6.20;99.90;;;;;;7357949;19;20049;-67
2023/12/16 03:34:53;;;;;;;13.52;4.43;;;6.10;99.90;;;;;;7368984;19;20041;-67
2023/12/16 03:37:19;;;;;;;12.30;3.83;;;6.10;99.90;;;;;;7372380;19;20051;-67
2023/12/16 03:39:46;;;;;;;13.05;3.72;;;6.10;99.90;;;;;;7365973;19;20018;-67
2023/12/16 03:42:12;;;;;;;11.27;3.92;;;6.10;99.90;;;;;;7371784;19;20015;-67
2023/12/16 03:44:38;;;;;;;13.70;4.13;;;6.10;99.90;;;;;;7370273;19;20023;-67
2023/12/16 03:47:05;;;;;;;16.67;4.07;;;6.10;99.90;;;;;;7370012;19;20018;-67
2023/12/16 03:49:51;;;;;;;14.38;3.70;;;6.10;99.90;;;;;;7365340;19;20018;-67
2023/12/16 03:52:17;;;;;;;12.80;3.78;;;6.10;99.90;;;;;;7373363;19;20018;-68
2023/12/16 03:54:43;;;;;;;15.27;4.20;;;6.20;99.90;;;;;;7361978;19;20093;-67
2023/12/16 03:57:10;;;;;;;13.27;4.47;;;6.10;99.90;;;;;;7373501;19;20043;-67
2023/12/16 03:59:36;;;;;;;14.77;5.18;;;6.20;99.90;;;;;;7367767;19;20097;-67
2023/12/16 04:02:03;;;;;;;15.95;4.20;;;6.20;99.90;;;;;;7367501;19;20019;-67
2023/12/16 04:04:32;;;;;;;14.23;5.30;;;6.20;99.90;;;;;;7371423;19;20018;-67
2023/12/16 04:07:00;;;;;;;16.20;4.18;;;6.20;99.90;;;;;;7369747;19;20022;-66
2023/12/16 04:09:28;;;;;;;14.88;3.80;;;6.20;99.90;;;;;;7368423;19;20018;-67
2023/12/16 04:11:54;;;;;;;13.43;4.40;;;6.20;99.90;;;;;;7363094;19;20033;-67
2023/12/16 04:14:21;;;;;;;14.88;4.03;;;6.20;99.90;;;;;;7367701;19;20022;-60
2023/12/16 04:16:47;;;;;;;13.45;5.43;;;6.10;99.90;;;;;;7367307;19;20896;-60
2023/12/16 04:19:14;;;;;;;17.88;4.75;;;6.10;99.90;;;;;;7368212;19;20015;-60
2023/12/16 04:21:41;;;;;;;16.25;4.35;;;6.10;99.90;;;;;;7360232;19;20028;-60
2023/12/16 04:24:10;;;;;;;14.02;3.63;;;6.10;99.90;;;;;;7367656;19;20738;-60
2023/12/16 04:26:36;;;;;;;14.20;3.78;;;6.20;99.90;;;;;;7365869;19;20017;-60
2023/12/16 04:29:02;;;;;;;13.63;4.00;;;6.20;99.90;;;;;;7369023;19;20761;-60
2023/12/16 04:31:28;;;;;;;23.30;4.10;;;6.20;99.90;;;;;;7368421;19;20015;-60
2023/12/16 04:33:55;;;;;;;13.50;4.25;;;6.20;99.90;;;;;;7362259;19;20014;-66
2023/12/16 04:36:21;;;;;;;11.88;3.53;;;6.20;99.90;;;;;;7370200;19;20628;-67
2023/12/16 04:38:47;;;;;;;13.05;3.25;;;6.20;99.90;;;;;;7363617;19;20026;-60
2023/12/16 04:41:14;;;;;;;12.02;3.70;;;6.20;99.90;;;;;;7364329;19;20022;-67
2023/12/16 04:43:40;;;;;;;22.20;4.65;;;6.20;99.90;;;;;;7368845;19;20465;-67
2023/12/16 04:46:09;;;;;;;19.10;4.90;;;6.20;99.90;;;;;;7365827;19;20584;-66
2023/12/16 04:48:36;;;;;;;13.13;4.35;;;6.20;99.90;;;;;;7362734;19;20109;-67
2023/12/16 04:51:06;;;;;;;14.77;3.42;;;6.30;99.90;;;;;;7363912;19;20014;-67
2023/12/16 04:53:53;;;;;;;11.00;3.20;;;6.30;99.90;;;;;;7367744;19;20045;-67
2023/12/16 04:56:19;;;;;;;14.30;4.07;;;6.30;99.90;;;;;;7367501;19;20019;-67
2023/12/16 04:58:45;;;;;;;14.43;4.35;;;6.30;99.90;;;;;;7367937;19;20045;-67
2023/12/16 05:01:14;;;;;;;14.93;4.03;;;6.20;99.90;;;;;;7366041;19;20018;-67
2023/12/16 05:03:44;;;;;;;14.88;3.95;;;6.20;99.90;;;;;;7367504;19;20495;-67
2023/12/16 05:06:11;;;;;;;12.25;4.53;;;6.30;99.90;;;;;;7363720;19;20031;-67
2023/12/16 05:08:37;;;;;;;16.23;4.05;;;6.30;99.90;;;;;;7367949;19;20596;-67
2023/12/16 05:11:04;;;;;;;23.58;4.85;;;6.30;99.90;;;;;;7365451;19;20085;-67
2023/12/16 05:13:30;;;;;;;14.02;3.75;;;6.30;99.90;;;;;;7363935;19;20764;-67
2023/12/16 05:16:19;;;;;;;14.75;3.83;;;6.20;99.90;;;;;;7364875;19;20102;-67
2023/12/16 05:18:46;;;;;;;20.02;4.70;;;6.20;99.90;;;;;;7368539;19;20019;-67
2023/12/16 05:21:13;;;;;;;20.48;4.53;;;6.20;99.90;;;;;;7367592;19;20897;-66
2023/12/16 05:23:39;;;;;;;16.10;5.05;;;6.20;99.90;;;;;;7365656;19;20109;-67
2023/12/16 05:26:05;;;;;;;21.30;4.22;;;6.10;99.90;;;;;;7362357;19;20015;-67
2023/12/16 05:28:32;;;;;;;16.60;5.85;;;6.10;99.90;;;;;;7366190;19;20558;-67
2023/12/16 05:30:59;;;;;;;13.13;4.55;;;6.10;99.90;;;;;;7365030;19;20860;-67
2023/12/16 05:33:45;;;;;;;19.00;5.43;;;6.10;99.90;;;;;;7366109;19;20029;-66
2023/12/16 05:36:11;;;;;;;17.70;4.43;;;6.10;99.90;;;;;;7366662;19;20011;-67
2023/12/16 05:38:38;;;;;;;21.00;5.70;;;6.10;99.90;;;;;;7364464;19;20038;-66
2023/12/16 05:41:05;;;;;;;22.20;5.30;;;6.10;99.90;;;;;;7365618;19;20043;-67
2023/12/16 05:43:31;;;;;;;19.08;5.82;;;6.10;99.90;;;;;;7364589;19;20708;-67
2023/12/16 05:45:57;;;;;;;21.77;5.32;;;6.00;99.90;;;;;;7365196;19;20023;-67
2023/12/16 05:48:23;;;;;;;13.77;4.88;;;6.00;99.90;;;;;;7362958;19;20378;-67
2023/12/16 05:50:50;;;;;;;24.83;5.78;;;6.00;99.90;;;;;;7365134;19;20562;-61
2023/12/16 05:53:16;;;;;;;21.33;5.57;;;6.00;99.90;;;;;;7359484;19;20026;-60
2023/12/16 05:55:47;;;;;;;20.77;5.72;;;6.10;99.90;;;;;;7369401;19;20019;-60
2023/12/16 05:58:13;;;;;;;24.80;6.83;;;6.00;99.90;;;;;;7365329;19;20014;-60
2023/12/16 06:00:40;;;;;;;23.60;6.00;;;6.00;99.90;;;;;;7365087;19;20019;-60
2023/12/16 06:03:06;;;;;;;18.98;5.55;;;6.00;99.90;;;;;;7366551;19;20015;-61
2023/12/16 06:05:53;;;;;;;16.10;5.47;;;6.00;99.90;;;;;;7375639;19;20052;-60
2023/12/16 06:08:19;;;;;;;21.42;5.65;;;6.00;99.90;;;;;;7369674;19;20082;-60
2023/12/16 06:10:46;;;;;;;18.95;5.97;;;6.00;99.90;;;;;;7373028;19;20067;-60
2023/12/16 06:13:32;;;;;;;20.33;5.85;;;6.00;99.90;;;;;;7368905;19;20019;-60
2023/12/16 06:15:59;;;;;;;24.23;7.18;;;6.00;99.90;;;;;;7374091;19;20022;-60
2023/12/16 06:18:25;;;;;;;19.67;6.25;;;6.00;99.90;;;;;;7371080;19;20025;-61
2023/12/16 06:20:51;;;;;;;19.08;6.20;;;6.00;99.90;;;;;;7369246;19;20058;-60
2023/12/16 06:23:18;;;;;;;16.95;6.13;;;6.10;99.90;;;;;;7368788;19;20035;-60
2023/12/16 06:25:44;;;;;;;22.95;6.15;;;6.00;99.90;;;;;;7373998;19;20074;-60
2023/12/16 06:28:10;;;;;;;17.80;6.60;;;6.00;99.90;;;;;;7370190;19;20022;-61
2023/12/16 06:30:37;;;;;;;22.15;6.65;;;6.10;99.90;;;;;;7373037;19;20090;-60
2023/12/16 06:33:03;;;;;;;27.42;6.22;;;6.10;99.90;;;;;;7365396;19;20026;-61
2023/12/16 06:35:29;;;;;;;24.67;7.78;;;6.10;99.90;;;;;;7374845;19;20018;-60
2023/12/16 06:37:55;;;;;;;20.95;5.85;;;6.20;99.90;;;;;;7370271;19;20018;-60
2023/12/16 06:40:22;;;;;;;26.70;6.90;;;6.20;99.90;;;;;;7374011;19;20018;-60
2023/12/16 06:42:48;;;;;;;20.17;6.63;;;6.20;99.90;;;;;;7368984;19;20015;-60
2023/12/16 06:45:14;;;;;;;14.45;5.75;;;6.20;99.90;;;;;;7370814;19;20018;-61
2023/12/16 06:47:40;;;;;;;28.85;7.05;;;6.20;99.90;;;;;;7370665;19;20548;-59
2023/12/16 06:50:12;;;;;;;22.60;6.60;;;6.20;99.90;;;;;;7371892;19;20026;-61
2023/12/16 06:52:38;;;;;;;22.10;6.72;;;6.20;99.90;;;;;;7372221;19;20023;-66
2023/12/16 06:55:05;;;;;;;29.42;7.47;;;6.20;99.90;;;;;;7368350;19;20025;-60
2023/12/16 06:57:31;;;;;;;21.50;7.45;;;6.20;99.90;;;;;;7371238;19;20026;-60
2023/12/16 06:59:58;;;;;;;25.48;6.65;;;6.30;99.90;;;;;;7369237;19;20115;-60
2023/12/16 07:02:25;;;;;;;29.23;7.60;;;6.20;99.90;;;;;;7372804;19;20415;-66
2023/12/16 07:04:51;;;;;;;22.40;8.10;;;6.20;99.90;;;;;;7371900;19;20643;-66
2023/12/16 07:07:18;;;;;;;22.23;8.35;;;6.30;99.90;;;;;;7378920;19;20021;-64
2023/12/16 07:09:45;;;;;;;21.52;8.10;;;6.20;99.90;;;;;;7375699;19;20046;-66
2023/12/16 07:12:11;;;;;;;21.67;7.53;;;6.30;99.90;;;;;;7369444;19;20589;-60
2023/12/16 07:14:38;;;;;;;24.20;7.50;;;6.40;99.90;;;;;;7370721;19;20654;-60
2023/12/16 07:17:04;;;;;;;20.75;7.15;;;6.30;99.90;;;;;;7369285;19;20019;-60
2023/12/16 07:19:33;;;;;;;21.50;8.15;;;6.40;99.90;;;;;;7371527;19;20030;-60
2023/12/16 07:21:59;;;;;;;25.88;7.07;;;6.40;99.90;;;;;;7369066;19;20421;-60
2023/12/16 07:24:25;;;;;;;28.10;8.73;;;6.40;99.90;;;;;;7374017;19;20458;-67
2023/12/16 07:26:52;;;;;;;25.88;8.45;;;6.40;99.90;;;;;;7367296;19;20019;-67
2023/12/16 07:29:18;;;;;;;19.23;7.78;;;6.50;99.90;;;;;;7371357;19;20363;-66
2023/12/16 07:31:48;;;;;;;24.90;8.57;;;6.50;99.90;;;;;;7374104;19;20025;-67
2023/12/16 07:34:14;;;;;;;21.27;7.75;;;6.50;99.90;;;;;;7371225;19;20466;-67
2023/12/16 07:36:41;;;;;;;22.88;8.18;;;6.50;99.90;;;;;;7367977;19;20022;-67
2023/12/16 07:39:08;;;;;;;31.55;8.38;;;6.50;99.90;;;;;;7372766;19;20572;-67
2023/12/16 07:41:35;;;;;;;22.25;7.38;;;6.50;99.90;;;;;;7371033;19;20038;-67
2023/12/16 07:44:01;;;;;;;24.67;7.95;;;6.50;99.90;;;;;;7375135;19;20018;-67
2023/12/16 07:46:28;;;;;;;20.40;7.90;;;6.60;99.90;;;;;;7373560;19;20023;-68
2023/12/16 07:48:54;;;;;;;20.20;6.85;;;6.60;99.90;;;;;;7370254;19;20029;-67
2023/12/16 07:51:24;;;;;;;22.85;7.53;;;6.50;99.90;;;;;;7371953;19;20044;-66
2023/12/16 07:53:51;;;;;;;23.95;7.93;;;6.60;99.90;;;;;;7372768;19;20058;-67
2023/12/16 07:56:22;;;;;;;26.30;8.95;;;6.60;99.90;;;;;;7371976;19;20014;-67
2023/12/16 07:58:50;;;;;;;27.77;9.57;;;6.60;99.90;;;;;;7373906;19;20039;-61
2023/12/16 08:01:20;;;;;;;24.13;8.93;;;6.60;99.90;;;;;;7370478;19;20990;-61
2023/12/16 08:03:47;;;;;;;25.48;8.25;;;6.60;99.90;;;;;;7371325;19;20577;-61
2023/12/16 08:06:33;;;;;;;27.83;8.50;;;6.70;99.90;;;;;;7368490;19;20022;-67
2023/12/16 08:08:59;;;;;;;30.95;9.68;;;6.70;99.90;;;;;;7370625;19;20034;-67
2023/12/16 08:11:26;;;;;;;26.83;8.32;;;6.80;99.90;;;;;;7369792;19;20025;-68
2023/12/16 08:13:53;;;;;;;16.83;8.98;;;6.80;99.90;;;;;;7370219;19;20492;-66
2023/12/16 08:16:19;;;;;;;29.52;9.02;;;6.80;99.90;;;;;;7368467;19;20022;-68
2023/12/16 08:18:45;;;;;;;21.17;8.52;;;6.80;99.90;;;;;;7371401;19;20026;-66
2023/12/16 08:21:15;;;;;;;23.27;8.68;;;6.80;99.90;;;;;;7367950;19;20014;-68
2023/12/16 08:23:42;;;;;;;32.25;10.23;;;6.90;99.90;;;;;;7372332;19;20029;-68
2023/12/16 08:26:10;;;;;;;23.95;8.57;;;6.90;99.90;;;;;;7367374;19;20022;-68
2023/12/16 08:28:37;;;;;;;21.52;7.82;;;6.90;99.90;;;;;;7371885;19;20015;-68
2023/12/16 08:31:03;;;;;;;24.77;8.50;;;6.90;99.90;;;;;;7366794;19;20081;-68
2023/12/16 08:33:30;;;;;;;25.77;8.20;;;6.90;99.90;;;;;;7369293;19;20023;-68
2023/12/16 08:35:59;;;;;;;29.55;9.25;;;6.90;99.90;;;;;;7366263;19;20014;-68
2023/12/16 08:38:25;;;;;;;26.33;9.02;;;7.00;99.90;;;;;;7374589;19;20370;-68
2023/12/16 08:40:54;;;;;;;24.30;9.50;;;7.00;99.90;;;;;;7366943;19;20921;-62
2023/12/16 08:43:24;;;;;;;20.30;8.60;;;7.00;99.90;;;;;;7370176;19;20510;-63
2023/12/16 08:45:50;;;;;;;24.98;9.55;;;7.00;99.90;;;;;;7366764;19;20031;-61
2023/12/16 08:48:16;;;;;;;27.98;9.25;;;7.00;99.90;;;;;;7367703;19;20043;-62
2023/12/16 08:50:43;;;;;;;21.73;8.45;;;7.10;99.90;;;;;;7367369;19;20023;-62
2023/12/16 08:53:10;;;;;;;28.02;9.65;;;7.10;99.90;;;;;;7367497;19;20060;-61
2023/12/16 08:55:36;;;;;;;29.65;8.77;;;7.10;99.90;;;;;;7371322;19;20026;-62
2023/12/16 08:58:02;;;;;;;32.35;8.93;;;7.20;99.90;;;;;;7364851;19;20052;-68
2023/12/16 09:00:29;;;;;;;26.50;9.10;;;7.20;99.90;;;;;;7366531;19;20021;-67
2023/12/16 09:02:55;;;;;;;29.35;10.15;;;7.20;99.90;;;;;;7365764;19;20019;-68
2023/12/16 09:05:21;;;;;;;26.40;8.88;;;7.30;99.90;;;;;;7369163;19;20022;-67
2023/12/16 09:07:47;;;;;;;25.00;8.40;;;7.30;99.90;;;;;;7368169;19;20057;-67
2023/12/16 09:10:14;;;;;;;26.10;8.88;;;7.30;99.90;;;;;;7366693;19;20023;-68
2023/12/16 09:12:41;;;;;;;28.55;8.43;;;7.30;99.90;;;;;;7371014;19;20014;-68
2023/12/16 09:15:08;;;;;;;30.00;9.50;;;7.40;99.90;;;;;;7364425;19;20022;-68
2023/12/16 09:17:34;;;;;;;30.33;11.10;;;7.40;99.90;;;;;;7367812;19;20477;-68
2023/12/16 09:20:00;;;;;;;28.33;9.75;;;7.40;99.90;;;;;;7367463;19;20126;-68
2023/12/16 09:22:27;;;;;;;24.58;8.98;;;7.40;99.90;;;;;;7366815;19;20046;-68
2023/12/16 09:24:55;;;;;;;26.77;8.63;;;7.50;99.90;;;;;;7361068;19;20057;-68
2023/12/16 09:27:22;;;;;;;29.27;8.80;;;7.50;99.90;;;;;;7367436;19;20018;-68
2023/12/16 09:29:51;;;;;;;34.63;10.23;;;7.50;99.90;;;;;;7367912;19;20035;-68
2023/12/16 09:32:17;;;;;;;39.83;10.50;;;7.50;99.90;;;;;;7369525;19;20031;-68
2023/12/16 09:34:44;;;;;;;40.47;11.23;;;7.50;99.90;;;;;;7368352;19;20089;-67
2023/12/16 09:37:30;;;;;;;40.63;9.63;;;7.50;99.90;;;;;;7371022;19;20098;-68
2023/12/16 09:39:56;;;;;;;34.25;10.57;;;7.50;99.90;;;;;;7372319;19;20589;-68
2023/12/16 09:42:25;;;;;;;35.65;10.95;;;7.50;99.90;;;;;;7376100;19;20027;-68
2023/12/16 09:44:55;;;;;;;40.25;11.68;;;7.50;99.90;;;;;;7367269;19;20805;-68
2023/12/16 09:47:22;;;;;;;36.88;10.93;;;7.50;99.90;;;;;;7379511;19;20022;-68
2023/12/16 09:49:51;;;;;;;32.22;10.77;;;7.50;99.90;;;;;;7371916;19;20036;-67
2023/12/16 09:52:17;;;;;;;37.67;10.98;;;7.60;99.90;;;;;;7378941;19;20014;-68
2023/12/16 09:54:44;;;;;;;42.22;12.07;;;7.60;99.90;;;;;;7370213;19;20022;-68
2023/12/16 09:57:13;;;;;;;42.95;12.05;;;7.70;99.90;;;;;;7375961;19;20014;-68
2023/12/16 09:59:44;;;;;;;49.15;13.25;;;7.70;99.90;;;;;;7373820;19;20061;-68
2023/12/16 10:02:27;;;;;;;41.15;12.63;;;7.70;99.90;;;;;;7373585;19;20014;-68
2023/12/16 10:04:58;;;;;;;40.78;13.07;;;7.80;99.90;;;;;;7373055;19;20029;-65
2023/12/16 10:07:25;;;;;;;41.10;11.43;;;7.80;99.90;;;;;;7376556;19;20023;-67
2023/12/16 10:09:52;;;;;;;38.15;13.02;;;7.80;99.90;;;;;;7370294;19;20350;-68
2023/12/16 10:12:19;;;;;;;47.00;14.45;;;7.80;99.90;;;;;;7373674;19;20025;-68
2023/12/16 10:14:47;;;;;;;35.85;12.93;;;7.90;99.90;;;;;;7371257;19;20030;-68
2023/12/16 10:17:18;;;;;;;41.10;13.73;;;7.80;99.90;;;;;;7374360;19;20137;-68
2023/12/16 10:19:46;;;;;;;42.58;13.98;;;7.80;99.90;;;;;;7372258;19;20023;-68
2023/12/16 10:22:17;;;;;;;41.70;15.10;;;7.80;99.90;;;;;;7374008;19;20596;-68
2023/12/16 10:24:45;;;;;;;38.38;15.40;;;7.80;99.90;;;;;;7369088;19;20014;-68
2023/12/16 10:27:15;;;;;;;36.85;14.52;;;7.80;99.90;;;;;;7372683;19;20025;-68
2023/12/16 10:29:42;;;;;;;42.08;15.35;;;7.80;99.90;;;;;;7364353;19;20029;-68
2023/12/16 10:32:10;;;;;;;50.85;16.58;;;7.80;99.90;;;;;;7371163;19;20367;-68
2023/12/16 10:34:36;;;;;;;45.53;17.15;;;7.70;99.90;;;;;;7367168;19;20022;-68
2023/12/16 10:37:07;;;;;;;49.30;18.70;;;7.70;99.90;;;;;;7372376;19;20022;-68
2023/12/16 10:39:34;;;;;;;48.50;19.20;;;7.70;99.90;;;;;;7363956;19;20054;-68
2023/12/16 10:42:00;;;;;;;48.83;19.92;;;7.80;99.90;;;;;;7366910;19;20026;-68
2023/12/16 10:44:26;;;;;;;45.72;19.67;;;7.70;99.90;;;;;;7366581;19;20022;-68
2023/12/16 10:46:54;;;;;;;39.88;20.17;;;7.80;99.90;;;;;;7364290;19;20398;-68
2023/12/16 10:49:31;;;;;;;50.78;20.33;;;7.80;99.90;;;;;;7365771;19;20534;-68
2023/12/16 10:52:11;;;;;;;55.05;22.00;;;7.80;99.90;;;;;;7365488;19;20029;-68
2023/12/16 10:54:43;;;;;;;59.75;21.83;;;7.80;99.90;;;;;;7371069;19;20015;-68
2023/12/16 10:57:12;;;;;;;46.58;21.60;;;7.80;99.90;;;;;;7370094;19;20045;-68
2023/12/16 10:59:43;;;;;;;50.05;23.88;;;7.80;99.90;;;;;;7370316;19;20045;-68
2023/12/16 11:02:25;;;;;;;53.85;23.58;;;7.80;99.90;;;;;;7368997;19;20466;-68
2023/12/16 11:05:14;;;;;;;51.83;23.88;;;7.80;99.90;;;;;;7370529;19;20717;-67
2023/12/16 11:07:42;;;;;;;57.65;24.95;;;7.80;99.90;;;;;;7375803;19;20017;-68
2023/12/16 11:10:08;;;;;;;55.92;25.33;;;7.80;99.90;;;;;;7369976;19;20025;-68
2023/12/16 11:12:38;;;;;;;51.72;25.20;;;7.90;99.90;;;;;;7375135;19;20085;-67
2023/12/16 11:15:08;;;;;;;48.80;25.48;;;7.90;99.90;;;;;;7369990;19;20475;-68
2023/12/16 11:17:54;;;;;;;59.30;25.75;;;7.90;99.90;;;;;;7374381;19;20018;-69
2023/12/16 11:20:25;;;;;;;57.00;25.80;;;7.90;99.90;;;;;;7374503;19;20026;-69
2023/12/16 11:22:52;;;;;;;57.40;27.98;;;7.90;99.90;;;;;;7369257;19;20022;-66
2023/12/16 11:25:20;;;;;;;55.67;26.75;;;7.90;99.90;;;;;;7371019;19;22146;-67
2023/12/16 11:27:48;;;;;;;54.30;24.92;;;7.90;99.90;;;;;;7368484;19;20141;-67
2023/12/16 11:30:16;;;;;;;57.75;26.45;;;7.90;99.90;;;;;;7368455;19;20022;-67
2023/12/16 11:33:03;;;;;;;54.78;25.45;;;7.90;99.90;;;;;;7369923;19;20093;-61
2023/12/16 11:35:36;;;;;;;52.53;25.42;;;7.90;99.90;;;;;;7371363;19;20356;-61
2023/12/16 11:38:03;;;;;;;54.10;26.83;;;7.90;99.90;;;;;;7369496;19;20015;-67
2023/12/16 11:40:52;;;;;;;54.67;25.67;;;7.90;99.90;;;;;;7370646;19;20025;-67
2023/12/16 11:43:19;;;;;;;58.40;27.77;;;7.90;99.90;;;;;;7373758;19;20006;-61
2023/12/16 11:45:49;;;;;;;53.72;27.48;;;8.00;99.90;;;;;;7370950;19;20006;-61
2023/12/16 11:48:36;;;;;;;67.93;28.80;;;8.00;99.90;;;;;;7370860;19;20355;-61
2023/12/16 11:51:03;;;;;;;57.38;27.30;;;8.10;99.90;;;;;;7366179;19;20022;-61
2023/12/16 11:53:30;;;;;;;62.08;29.50;;;8.10;99.90;;;;;;7374274;19;20470;-61
2023/12/16 11:55:56;;;;;;;63.78;32.58;;;8.10;99.90;;;;;;7366931;19;20502;-61
2023/12/16 11:58:24;;;;;;;64.45;29.60;;;8.10;99.90;;;;;;7372701;19;20043;-61
2023/12/16 12:00:50;;;;;;;58.28;28.70;;;8.10;99.90;;;;;;7366190;19;20482;-61
2023/12/16 12:03:17;;;;;;;56.85;28.92;;;8.10;99.90;;;;;;7370652;19;20018;-61
2023/12/16 12:05:44;;;;;;;61.67;28.52;;;8.10;99.90;;;;;;7371725;19;20026;-61
2023/12/16 12:08:10;;;;;;;55.10;26.95;;;8.10;99.90;;;;;;7371679;19;20061;-61
2023/12/16 12:10:37;;;;;;;58.38;28.55;;;8.20;99.90;;;;;;7371514;19;20026;-64
2023/12/16 12:13:03;;;;;;;56.92;29.13;;;8.10;99.90;;;;;;7372216;19;20043;-61
2023/12/16 12:15:34;;;;;;;52.28;27.25;;;8.10;99.90;;;;;;7367231;19;20014;-60
2023/12/16 12:18:01;;;;;;;54.90;27.33;;;8.10;99.90;;;;;;7373365;19;20025;-61
2023/12/16 12:20:28;;;;;;;96.85;64.03;;;8.20;99.90;;;;;;7370687;19;20026;-61
2023/12/16 12:22:56;;;;;;;61.65;28.80;;;8.20;99.90;;;;;;7370824;19;20010;-61
2023/12/16 12:25:22;;;;;;;50.83;26.90;;;8.20;99.90;;;;;;7372246;19;20014;-61
2023/12/16 12:27:48;;;;;;;52.97;28.95;;;8.20;99.90;;;;;;7371282;19;20102;-61
2023/12/16 12:30:18;;;;;;;55.40;27.83;;;8.20;99.90;;;;;;7368826;19;20023;-61
2023/12/16 12:32:44;;;;;;;55.65;26.50;;;8.30;99.90;;;;;;7368866;19;20086;-61
2023/12/16 12:35:31;;;;;;;54.22;26.02;;;8.20;99.90;;;;;;7369546;19;20499;-61
2023/12/16 12:37:57;;;;;;;46.05;26.38;;;8.30;99.90;;;;;;7370563;19;20019;-62
2023/12/16 12:40:24;;;;;;;47.45;26.80;;;8.30;99.90;;;;;;7370828;19;20039;-62
2023/12/16 12:42:56;;;;;;;61.50;29.08;;;8.20;99.90;;;;;;7373338;19;20018;-62
2023/12/16 12:45:33;;;;;;;48.88;27.25;;;8.30;99.90;;;;;;7370974;19;20018;-61
2023/12/16 12:48:20;;;;;;;55.53;27.85;;;8.30;99.90;;;;;;7369988;19;20022;-62
2023/12/16 12:51:10;;;;;;;49.25;26.23;;;8.30;99.90;;;;;;7372550;19;20729;-62